Time;durP1;ratioP1;P1;durP2;ratioP2;P2;SDS_P1;SDS_P2;PMS_P1;PMS_P2;Temp;Humidity;BMP_temperature;BMP_pressure;BME280_temperature;BME280_humidity;BME280_pressure;Samples;Min_cycle;Max_cycle;Signal;HPM_P1;HPM_P2
2023/06/23 00:02:00;;;;;;;9.27;7.20;;;21.90;97.50;;;;;;4967283;28;20262;-72
2023/06/23 00:04:50;;;;;;;9.15;6.45;;;21.90;97.60;;;;;;4962963;28;20230;-71
2023/06/23 00:07:40;;;;;;;8.95;6.60;;;21.80;97.60;;;;;;4961040;28;20251;-71
2023/06/23 00:10:28;;;;;;;9.52;7.30;;;21.70;98.00;;;;;;4950923;28;20234;-70
2023/06/23 00:13:19;;;;;;;9.65;6.88;;;21.70;98.70;;;;;;4964137;28;20329;-71
2023/06/23 00:16:11;;;;;;;9.80;6.85;;;21.70;99.30;;;;;;4959024;28;20220;-72
2023/06/23 00:19:00;;;;;;;9.57;6.38;;;21.80;99.80;;;;;;4963267;28;20233;-73
2023/06/23 00:21:49;;;;;;;8.15;6.50;;;21.80;99.20;;;;;;4960277;28;20227;-71
2023/06/23 00:24:38;;;;;;;9.38;6.97;;;21.70;99.50;;;;;;4962276;28;20244;-72
2023/06/23 00:27:27;;;;;;;9.23;7.35;;;21.70;99.40;;;;;;4962431;28;20265;-72
2023/06/23 00:30:16;;;;;;;9.30;7.20;;;21.60;99.70;;;;;;4958457;28;20391;-71
2023/06/23 00:33:06;;;;;;;8.95;6.68;;;21.70;99.90;;;;;;4953207;28;20231;-73
2023/06/23 00:35:55;;;;;;;11.95;6.80;;;21.60;99.90;;;;;;4959216;28;20244;-71
2023/06/23 00:38:45;;;;;;;9.40;7.15;;;21.60;99.90;;;;;;4963682;28;20374;-72
2023/06/23 00:41:35;;;;;;;8.55;6.65;;;21.50;99.90;;;;;;4952050;28;20584;-72
2023/06/23 00:44:24;;;;;;;9.68;7.35;;;21.60;99.90;;;;;;4935882;28;20232;-72
2023/06/23 00:47:14;;;;;;;9.20;7.30;;;21.50;99.90;;;;;;4940267;28;20283;-71
2023/06/23 00:50:07;;;;;;;8.40;7.00;;;21.30;99.90;;;;;;4930536;28;20228;-73
2023/06/23 00:52:56;;;;;;;9.30;7.10;;;21.30;99.90;;;;;;4934694;28;20323;-72
2023/06/23 00:55:46;;;;;;;12.45;7.10;;;21.30;99.90;;;;;;4943189;28;20240;-72
2023/06/23 00:58:41;;;;;;;8.25;7.30;;;21.30;99.90;;;;;;4918563;28;20848;-72
2023/06/23 01:01:31;;;;;;;7.18;6.47;;;21.30;99.90;;;;;;4934345;29;20240;-73
2023/06/23 01:04:22;;;;;;;9.80;7.22;;;21.30;99.90;;;;;;4926384;29;20712;-74
2023/06/23 01:07:21;;;;;;;10.45;7.53;;;21.30;99.90;;;;;;4925231;29;20220;-74
2023/06/23 01:10:16;;;;;;;12.57;7.35;;;21.30;99.90;;;;;;4944451;28;20632;-74
2023/06/23 01:13:20;;;;;;;7.20;6.47;;;21.10;99.90;;;;;;4941703;28;20231;-73
2023/06/23 01:16:15;;;;;;;9.15;6.78;;;21.10;99.90;;;;;;4940113;28;20246;-72
2023/06/23 01:19:16;;;;;;;9.45;6.68;;;21.10;99.90;;;;;;4940577;28;20263;-72
2023/06/23 01:22:20;;;;;;;9.13;7.03;;;21.10;99.90;;;;;;4945910;28;20219;-71
2023/06/23 01:25:20;;;;;;;10.05;7.25;;;21.10;99.90;;;;;;4939823;28;20239;-71
2023/06/23 01:31:14;;;;;;;10.23;7.18;;;21.10;99.90;;;;;;5017013;28;20665;-73
2023/06/23 01:34:06;;;;;;;8.88;7.07;;;21.00;99.90;;;;;;5015733;28;20230;-73
2023/06/23 01:37:01;;;;;;;8.75;7.43;;;21.00;99.90;;;;;;5009176;28;20234;-72
2023/06/23 01:39:54;;;;;;;8.18;7.13;;;21.00;99.90;;;;;;5012370;28;20665;-72
2023/06/23 01:42:47;;;;;;;8.45;7.32;;;20.80;99.90;;;;;;5024503;28;20248;-70
2023/06/23 01:45:39;;;;;;;10.90;7.65;;;20.90;99.90;;;;;;5008476;28;20622;-69
2023/06/23 01:48:30;;;;;;;9.43;7.45;;;20.80;99.90;;;;;;5008822;28;20569;-71
2023/06/23 01:51:23;;;;;;;9.68;7.30;;;21.00;99.90;;;;;;5013047;28;20229;-72
2023/06/23 01:54:13;;;;;;;10.55;7.40;;;20.80;99.90;;;;;;5025365;28;20229;-71
2023/06/23 01:57:02;;;;;;;10.20;7.25;;;20.90;99.90;;;;;;5017283;28;20224;-71
2023/06/23 01:59:53;;;;;;;9.23;7.10;;;20.90;99.90;;;;;;5012556;28;20360;-71
2023/06/23 02:02:45;;;;;;;8.20;7.07;;;20.70;99.90;;;;;;5008076;28;21107;-71
2023/06/23 02:05:37;;;;;;;8.95;6.97;;;20.80;99.90;;;;;;5010991;28;20222;-71
2023/06/23 02:08:29;;;;;;;9.75;7.45;;;20.90;99.90;;;;;;5003037;28;20241;-72
2023/06/23 02:11:20;;;;;;;7.50;6.72;;;20.80;99.90;;;;;;5007346;28;20229;-72
2023/06/23 02:14:10;;;;;;;11.65;7.20;;;20.70;99.90;;;;;;5017142;28;20232;-71
2023/06/23 02:17:00;;;;;;;9.75;7.40;;;20.70;99.90;;;;;;5024168;28;20219;-71
2023/06/23 02:19:51;;;;;;;10.07;7.22;;;20.80;99.90;;;;;;5010269;28;20221;-69
2023/06/23 02:22:45;;;;;;;11.07;7.00;;;20.70;99.90;;;;;;5002555;28;20259;-68
2023/06/23 02:25:36;;;;;;;11.32;7.25;;;20.60;99.90;;;;;;5015529;28;20269;-70
2023/06/23 02:28:28;;;;;;;8.77;7.38;;;20.70;99.90;;;;;;5005336;28;20214;-71
2023/06/23 02:31:20;;;;;;;8.90;6.18;;;20.70;99.90;;;;;;5024317;28;20308;-68
2023/06/23 02:34:09;;;;;;;11.80;6.68;;;20.70;99.90;;;;;;5016019;28;20237;-72
2023/06/23 02:37:03;;;;;;;7.63;6.75;;;20.80;99.90;;;;;;5014083;28;20229;-73
2023/06/23 02:39:58;;;;;;;10.27;6.75;;;20.70;99.90;;;;;;5005090;28;20691;-72
2023/06/23 02:42:52;;;;;;;10.43;7.00;;;20.60;99.90;;;;;;4996960;28;20246;-72
2023/06/23 02:45:47;;;;;;;7.80;6.65;;;20.60;99.90;;;;;;4992934;28;20222;-71
2023/06/23 02:48:40;;;;;;;8.80;7.35;;;20.50;99.90;;;;;;4995330;28;20301;-72
2023/06/23 02:51:30;;;;;;;11.10;6.60;;;20.60;99.90;;;;;;4994881;28;20234;-70
2023/06/23 02:54:22;;;;;;;8.35;6.70;;;20.70;99.90;;;;;;5015504;28;20768;-70
2023/06/23 02:57:19;;;;;;;9.35;6.72;;;20.70;99.90;;;;;;5019119;28;20230;-70
2023/06/23 03:00:13;;;;;;;7.93;7.10;;;20.80;99.90;;;;;;5009559;28;20342;-71
2023/06/23 03:03:06;;;;;;;9.48;6.97;;;20.90;99.90;;;;;;4999177;28;20321;-71
2023/06/23 03:05:56;;;;;;;8.38;6.97;;;20.80;99.90;;;;;;4988967;28;20282;-70
2023/06/23 03:08:46;;;;;;;12.15;7.20;;;20.80;99.90;;;;;;4998313;28;20229;-70
2023/06/23 03:11:37;;;;;;;8.55;7.35;;;20.80;99.90;;;;;;5003873;28;20618;-70
2023/06/23 03:14:29;;;;;;;9.07;7.25;;;20.80;99.90;;;;;;5002991;28;20226;-70
2023/06/23 03:17:23;;;;;;;9.05;6.70;;;20.70;99.90;;;;;;4998022;28;20922;-72
2023/06/23 03:20:22;;;;;;;10.93;6.60;;;20.60;99.90;;;;;;4994075;28;20721;-71
2023/06/23 03:23:14;;;;;;;8.38;6.60;;;20.70;99.90;;;;;;4990215;28;20309;-72
2023/06/23 03:26:05;;;;;;;8.95;6.18;;;20.70;99.90;;;;;;5005244;28;20227;-71
2023/06/23 03:28:58;;;;;;;7.82;6.03;;;20.80;99.90;;;;;;4997312;28;20753;-69
2023/06/23 03:31:54;;;;;;;8.48;6.15;;;20.60;99.90;;;;;;4996306;28;20234;-73
2023/06/23 03:34:51;;;;;;;10.15;6.28;;;20.80;99.90;;;;;;5000459;28;20227;-71
2023/06/23 03:37:47;;;;;;;8.77;5.78;;;20.90;99.90;;;;;;4992659;28;20614;-71
2023/06/23 03:40:42;;;;;;;8.35;6.30;;;20.90;99.90;;;;;;5008357;28;20391;-72
2023/06/23 03:43:35;;;;;;;7.82;5.75;;;21.00;99.90;;;;;;4990597;28;20723;-72
2023/06/23 03:46:29;;;;;;;9.00;5.75;;;20.70;99.90;;;;;;5026112;28;20225;-71
2023/06/23 03:49:23;;;;;;;8.88;6.10;;;20.90;99.90;;;;;;4990959;28;20380;-70
2023/06/23 03:52:15;;;;;;;8.90;5.88;;;21.00;99.90;;;;;;5000100;28;20257;-70
2023/06/23 03:55:06;;;;;;;7.35;5.80;;;21.00;99.90;;;;;;4997576;28;20230;-70
2023/06/23 03:58:01;;;;;;;7.55;6.20;;;21.00;99.90;;;;;;4998171;28;20309;-70
2023/06/23 04:00:51;;;;;;;10.30;5.78;;;20.90;99.90;;;;;;4994156;28;20226;-69
2023/06/23 04:03:41;;;;;;;9.98;5.50;;;20.80;99.90;;;;;;5005782;28;20246;-70
2023/06/23 04:06:34;;;;;;;6.40;5.80;;;20.80;99.90;;;;;;4996581;28;20712;-70
2023/06/23 04:09:25;;;;;;;6.32;5.35;;;20.90;99.90;;;;;;5001915;28;20226;-72
2023/06/23 04:12:17;;;;;;;8.32;5.88;;;21.00;99.90;;;;;;5001843;28;20241;-72
2023/06/23 04:15:10;;;;;;;9.07;5.28;;;21.10;99.90;;;;;;4993476;28;20729;-71
2023/06/23 04:18:01;;;;;;;9.35;6.05;;;21.00;99.90;;;;;;4993914;28;20254;-72
2023/06/23 04:20:51;;;;;;;7.90;5.28;;;21.00;99.90;;;;;;5005756;28;20220;-73
2023/06/23 04:23:43;;;;;;;7.53;5.15;;;20.90;99.90;;;;;;4989403;28;20415;-72
2023/06/23 04:26:34;;;;;;;6.90;5.00;;;20.80;99.90;;;;;;5008725;28;20822;-72
2023/06/23 04:29:25;;;;;;;7.50;4.97;;;20.80;99.90;;;;;;4995887;28;20237;-72
2023/06/23 04:32:16;;;;;;;6.43;5.00;;;21.00;99.90;;;;;;4991282;28;20273;-72
2023/06/23 04:35:07;;;;;;;7.53;4.50;;;21.00;99.90;;;;;;5005608;28;20222;-73
2023/06/23 04:38:00;;;;;;;6.80;4.95;;;21.20;99.90;;;;;;4991439;28;20238;-70
2023/06/23 04:40:55;;;;;;;7.97;4.85;;;21.40;99.90;;;;;;5003649;28;20241;-70
2023/06/23 04:43:46;;;;;;;5.95;4.80;;;21.50;99.90;;;;;;4986601;28;20218;-71
2023/06/23 04:46:41;;;;;;;7.35;4.65;;;21.70;99.90;;;;;;5002111;28;20701;-71
2023/06/23 04:49:32;;;;;;;5.25;4.57;;;21.90;99.90;;;;;;4991327;28;20226;-71
2023/06/23 04:52:22;;;;;;;8.07;4.50;;;22.00;99.90;;;;;;4997547;28;20225;-70
2023/06/23 04:55:16;;;;;;;6.40;4.35;;;22.00;99.90;;;;;;5000988;28;20218;-69
2023/06/23 04:58:10;;;;;;;6.13;4.28;;;22.10;99.90;;;;;;5001361;28;20236;-72
2023/06/23 05:01:02;;;;;;;6.65;4.47;;;22.20;99.90;;;;;;5000150;28;20226;-73
2023/06/23 05:03:53;;;;;;;7.43;4.28;;;22.20;99.90;;;;;;4995947;28;20230;-72
2023/06/23 05:06:44;;;;;;;6.82;3.83;;;22.10;99.90;;;;;;4988552;28;20313;-72
2023/06/23 05:09:34;;;;;;;5.82;4.30;;;22.20;99.90;;;;;;4996318;28;20349;-72
2023/06/23 05:12:25;;;;;;;7.45;4.32;;;22.10;99.90;;;;;;4981426;28;20698;-73
2023/06/23 05:15:18;;;;;;;5.75;3.92;;;22.30;99.90;;;;;;4994959;28;21503;-73
2023/06/23 05:18:08;;;;;;;7.60;4.32;;;22.50;99.90;;;;;;4998261;28;20229;-72
2023/06/23 05:21:01;;;;;;;8.32;4.30;;;22.60;99.90;;;;;;5000185;28;20418;-72
2023/06/23 05:23:53;;;;;;;5.72;4.35;;;22.80;99.90;;;;;;4992094;28;20223;-73
2023/06/23 05:26:43;;;;;;;6.50;4.20;;;22.90;99.90;;;;;;5002812;28;20312;-72
2023/06/23 05:29:36;;;;;;;7.32;4.40;;;22.90;99.90;;;;;;4988615;28;20226;-73
2023/06/23 05:32:29;;;;;;;5.72;4.47;;;22.70;99.90;;;;;;4998837;28;20384;-71
2023/06/23 05:35:24;;;;;;;5.65;3.88;;;22.70;99.90;;;;;;4990490;28;20314;-68
2023/06/23 05:38:15;;;;;;;6.70;4.38;;;22.90;99.90;;;;;;4995793;28;20580;-71
2023/06/23 05:41:07;;;;;;;6.57;4.20;;;23.00;99.90;;;;;;4994552;28;20225;-71
2023/06/23 05:43:55;;;;;;;8.65;4.10;;;22.90;99.60;;;;;;4999444;28;20297;-71
2023/06/23 05:46:49;;;;;;;7.25;4.30;;;22.90;99.90;;;;;;4990262;28;20234;-74
2023/06/23 05:49:42;;;;;;;7.70;3.92;;;23.00;99.00;;;;;;4991068;28;20214;-72
2023/06/23 05:52:40;;;;;;;6.20;3.90;;;23.10;99.10;;;;;;4979453;28;20230;-73
2023/06/23 05:55:30;;;;;;;9.07;3.90;;;23.30;98.70;;;;;;4994849;28;20329;-74
2023/06/23 05:58:25;;;;;;;6.32;3.53;;;23.60;99.10;;;;;;4992783;28;20796;-71
2023/06/23 06:01:19;;;;;;;9.35;3.80;;;23.70;98.30;;;;;;4986990;28;20218;-74
2023/06/23 06:04:11;;;;;;;8.05;3.67;;;23.50;98.20;;;;;;4990274;28;20215;-71
2023/06/23 06:07:03;;;;;;;8.15;3.60;;;23.40;97.90;;;;;;5004861;28;20238;-73
2023/06/23 06:09:53;;;;;;;9.13;3.80;;;23.30;98.70;;;;;;4996679;28;20222;-71
2023/06/23 06:12:45;;;;;;;6.10;3.55;;;23.40;98.30;;;;;;5000303;28;20245;-72
2023/06/23 06:15:39;;;;;;;6.85;3.20;;;23.40;98.20;;;;;;4997176;28;20227;-75
2023/06/23 06:18:34;;;;;;;5.35;3.55;;;23.20;98.40;;;;;;4986831;28;20226;-74
2023/06/23 06:21:25;;;;;;;7.00;3.65;;;23.20;98.80;;;;;;4995901;28;20218;-74
2023/06/23 06:24:17;;;;;;;7.18;3.60;;;23.20;98.00;;;;;;5003272;28;20244;-74
2023/06/23 06:27:09;;;;;;;6.03;3.70;;;23.40;98.90;;;;;;5013787;28;20281;-74
2023/06/23 06:29:59;;;;;;;9.98;3.80;;;23.60;99.50;;;;;;4997097;28;20245;-75
2023/06/23 06:32:51;;;;;;;8.77;4.22;;;23.60;99.30;;;;;;5006666;28;20328;-74
2023/06/23 06:35:42;;;;;;;6.72;3.95;;;23.50;99.20;;;;;;4994619;28;20222;-74
2023/06/23 06:38:35;;;;;;;6.05;3.90;;;23.50;99.90;;;;;;5003013;28;20697;-74
2023/06/23 06:41:28;;;;;;;7.88;4.00;;;23.50;99.80;;;;;;4985051;28;20233;-74
2023/06/23 06:44:17;;;;;;;7.47;3.65;;;23.50;99.80;;;;;;4990839;28;20222;-74
2023/06/23 06:47:11;;;;;;;8.75;4.60;;;23.60;99.80;;;;;;4989616;28;20229;-73
2023/06/23 06:50:02;;;;;;;5.60;4.05;;;23.70;99.60;;;;;;5005232;28;20236;-72
2023/06/23 06:52:51;;;;;;;8.00;3.92;;;23.80;99.90;;;;;;4999169;28;20300;-73
2023/06/23 06:55:41;;;;;;;8.45;4.45;;;23.70;99.90;;;;;;4991208;28;20258;-72
2023/06/23 06:58:33;;;;;;;7.13;3.78;;;23.70;99.80;;;;;;5006494;28;20291;-73
2023/06/23 07:01:25;;;;;;;7.32;4.50;;;23.60;99.90;;;;;;4997390;28;20458;-72
2023/06/23 07:04:15;;;;;;;9.38;4.28;;;23.70;99.90;;;;;;4993228;28;20226;-72
2023/06/23 07:07:04;;;;;;;6.05;4.70;;;23.80;99.90;;;;;;5001367;28;20236;-71
2023/06/23 07:09:53;;;;;;;5.00;4.30;;;23.70;99.90;;;;;;5008527;28;20621;-71
2023/06/23 07:12:42;;;;;;;6.32;4.30;;;23.80;99.90;;;;;;4997741;28;20250;-75
2023/06/23 07:15:32;;;;;;;7.68;4.63;;;23.80;99.90;;;;;;4994444;28;20218;-76
2023/06/23 07:18:36;;;;;;;8.15;4.97;;;23.80;99.90;;;;;;4981712;28;20219;-78
2023/06/23 07:21:28;;;;;;;10.05;4.80;;;23.70;99.90;;;;;;4997542;28;20249;-76
2023/06/23 07:24:22;;;;;;;10.35;4.60;;;23.80;99.90;;;;;;5002864;28;20600;-77
2023/06/23 07:27:14;;;;;;;10.05;4.88;;;23.80;99.90;;;;;;4995275;28;20222;-76
2023/06/23 07:30:05;;;;;;;9.93;5.40;;;23.70;99.90;;;;;;4996654;28;20742;-77
2023/06/23 07:32:56;;;;;;;9.20;5.32;;;23.80;99.90;;;;;;5003097;28;20714;-77
2023/06/23 07:35:50;;;;;;;8.60;5.50;;;23.80;99.90;;;;;;5000870;28;20226;-77
2023/06/23 07:38:39;;;;;;;8.88;5.38;;;23.80;99.90;;;;;;4999747;28;20226;-76
2023/06/23 07:41:31;;;;;;;6.85;5.70;;;23.80;99.90;;;;;;4992454;28;21374;-74
2023/06/23 07:44:21;;;;;;;8.32;5.65;;;23.70;99.90;;;;;;5005382;28;20230;-73
2023/06/23 07:47:13;;;;;;;9.90;5.40;;;23.60;99.90;;;;;;5003304;28;20803;-72
2023/06/23 07:50:08;;;;;;;10.02;5.85;;;23.60;99.90;;;;;;4998558;28;20236;-73
2023/06/23 07:52:56;;;;;;;12.73;6.35;;;23.70;99.90;;;;;;5005357;28;20253;-71
2023/06/23 07:55:46;;;;;;;18.05;6.22;;;23.80;99.90;;;;;;4997722;28;20722;-73
2023/06/23 07:58:36;;;;;;;14.18;6.25;;;23.80;99.90;;;;;;5000646;28;20234;-75
2023/06/23 08:01:26;;;;;;;11.45;5.90;;;23.80;99.90;;;;;;4992789;28;20242;-78
2023/06/23 08:04:15;;;;;;;11.07;6.75;;;23.70;99.90;;;;;;4997273;28;20226;-75
2023/06/23 08:07:06;;;;;;;9.27;6.47;;;23.70;99.90;;;;;;4997550;28;20310;-72
2023/06/23 08:09:55;;;;;;;7.97;6.35;;;23.60;99.90;;;;;;5014096;28;20234;-70
2023/06/23 08:12:44;;;;;;;11.40;7.00;;;23.60;99.90;;;;;;4997247;28;20234;-71
2023/06/23 08:15:33;;;;;;;8.60;6.80;;;23.50;99.90;;;;;;5009151;28;20229;-73
2023/06/23 08:18:23;;;;;;;9.00;7.15;;;23.50;99.90;;;;;;5001448;28;20218;-71
2023/06/23 08:21:12;;;;;;;8.82;6.97;;;23.40;99.90;;;;;;4993177;28;20752;-71
2023/06/23 08:24:04;;;;;;;21.42;8.20;;;23.30;99.90;;;;;;4998303;28;20714;-71
2023/06/23 08:26:54;;;;;;;9.00;7.35;;;23.30;99.90;;;;;;4997724;28;20245;-72
2023/06/23 08:29:43;;;;;;;8.98;6.40;;;23.20;99.90;;;;;;4985733;28;20301;-73
2023/06/23 08:32:32;;;;;;;12.63;8.10;;;23.20;99.90;;;;;;4988550;28;20262;-71
2023/06/23 08:35:26;;;;;;;9.00;7.53;;;23.20;99.90;;;;;;5001083;28;20331;-72
2023/06/23 08:38:16;;;;;;;9.60;8.13;;;23.20;99.90;;;;;;5021197;28;20237;-73
2023/06/23 08:41:06;;;;;;;13.50;8.20;;;23.00;99.90;;;;;;4998197;28;20230;-72
2023/06/23 08:44:01;;;;;;;13.05;7.68;;;22.90;99.90;;;;;;4993463;28;20242;-74
2023/06/23 08:46:53;;;;;;;15.30;9.45;;;23.00;99.90;;;;;;4999131;28;20257;-75
2023/06/23 08:49:55;;;;;;;14.63;9.32;;;22.80;99.90;;;;;;5001476;28;20221;-74
2023/06/23 08:52:44;;;;;;;13.35;9.65;;;22.80;99.90;;;;;;4999295;28;20265;-74
2023/06/23 08:55:35;;;;;;;17.42;9.70;;;22.60;99.90;;;;;;4987191;28;20223;-73
2023/06/23 08:58:26;;;;;;;15.43;9.55;;;22.40;99.90;;;;;;5000858;28;20218;-73
2023/06/23 09:01:15;;;;;;;15.73;9.68;;;22.30;99.90;;;;;;4995487;28;20218;-72
2023/06/23 09:04:04;;;;;;;11.02;9.30;;;22.00;99.90;;;;;;4993837;28;20250;-74
2023/06/23 09:06:57;;;;;;;12.30;10.32;;;21.80;99.90;;;;;;5004443;28;20261;-72
2023/06/23 09:09:49;;;;;;;11.63;10.45;;;21.60;99.90;;;;;;4998218;28;20608;-74
2023/06/23 09:12:47;;;;;;;15.82;11.23;;;21.40;99.90;;;;;;4998507;28;20365;-70
2023/06/23 09:15:39;;;;;;;16.77;12.15;;;21.40;99.90;;;;;;4993159;28;20305;-70
2023/06/23 09:18:49;;;;;;;18.10;12.18;;;21.40;99.90;;;;;;4997027;28;20222;-69
2023/06/23 09:21:38;;;;;;;14.50;11.52;;;21.10;99.90;;;;;;4997894;28;20317;-71
2023/06/23 09:24:43;;;;;;;19.20;13.52;;;21.00;99.90;;;;;;4987340;28;20237;-71
2023/06/23 09:27:42;;;;;;;17.08;13.23;;;21.00;99.90;;;;;;4996110;28;20713;-71
2023/06/23 09:30:37;;;;;;;17.30;13.32;;;21.00;99.90;;;;;;5000869;28;20230;-70
2023/06/23 09:33:27;;;;;;;24.40;14.77;;;21.00;99.90;;;;;;4999043;28;20234;-70
2023/06/23 09:36:17;;;;;;;18.27;14.65;;;21.00;99.90;;;;;;4993358;28;20594;-69
2023/06/23 09:39:14;;;;;;;17.42;14.80;;;21.10;99.90;;;;;;4992086;28;20222;-70
2023/06/23 09:42:08;;;;;;;17.08;14.77;;;20.90;99.90;;;;;;4998426;28;20222;-70
2023/06/23 09:45:01;;;;;;;18.88;13.88;;;21.00;99.90;;;;;;4999815;28;20998;-71
2023/06/23 09:47:54;;;;;;;21.88;14.88;;;21.00;99.90;;;;;;4992083;28;20344;-70
2023/06/23 09:50:44;;;;;;;19.27;16.55;;;21.00;99.90;;;;;;5001107;28;20816;-70
2023/06/23 09:53:37;;;;;;;18.10;15.07;;;21.00;99.90;;;;;;4996813;28;20226;-71
2023/06/23 09:56:26;;;;;;;18.55;16.10;;;21.10;99.90;;;;;;4996807;28;20226;-68
2023/06/23 09:59:16;;;;;;;29.50;18.70;;;21.30;99.90;;;;;;5007839;28;20222;-72
2023/06/23 10:02:10;;;;;;;21.45;18.48;;;21.30;99.90;;;;;;4998448;28;20223;-69
2023/06/23 10:05:03;;;;;;;23.65;19.88;;;21.30;99.90;;;;;;5001403;28;20233;-70
2023/06/23 10:08:07;;;;;;;21.08;18.77;;;21.30;99.90;;;;;;4995896;28;20214;-71
2023/06/23 10:10:56;;;;;;;23.77;19.05;;;21.30;99.90;;;;;;5000763;28;20253;-71
2023/06/23 10:13:46;;;;;;;22.40;19.85;;;21.40;99.90;;;;;;4998229;28;20222;-70
2023/06/23 10:16:41;;;;;;;23.10;20.80;;;21.40;99.90;;;;;;4994976;28;20258;-69
2023/06/23 10:19:29;;;;;;;21.55;19.17;;;21.30;99.90;;;;;;5008615;28;20307;-71
2023/06/23 10:22:23;;;;;;;26.02;20.70;;;21.30;99.90;;;;;;5010766;28;20310;-69
2023/06/23 10:25:12;;;;;;;24.15;20.95;;;21.40;99.90;;;;;;4996247;28;20246;-69
2023/06/23 10:28:08;;;;;;;23.08;20.50;;;21.60;99.90;;;;;;5004868;28;20838;-68
2023/06/23 10:31:03;;;;;;;24.98;21.48;;;21.60;99.90;;;;;;5012774;28;20422;-69
2023/06/23 10:33:53;;;;;;;22.27;19.67;;;21.80;99.90;;;;;;4998832;28;20249;-72
2023/06/23 10:36:43;;;;;;;23.40;20.13;;;21.90;99.90;;;;;;5000839;28;20225;-72
2023/06/23 10:39:36;;;;;;;23.05;20.35;;;22.00;99.90;;;;;;5000168;28;20301;-72
2023/06/23 10:42:28;;;;;;;21.63;19.33;;;22.00;99.90;;;;;;5001038;28;20222;-70
2023/06/23 10:45:19;;;;;;;21.42;19.20;;;22.20;99.90;;;;;;5019415;28;20233;-71
2023/06/23 10:48:09;;;;;;;20.98;18.88;;;22.30;99.90;;;;;;4999576;28;20223;-70
2023/06/23 10:50:59;;;;;;;21.70;18.05;;;22.30;99.90;;;;;;5002745;28;20609;-72
2023/06/23 10:53:58;;;;;;;19.95;17.95;;;22.20;99.90;;;;;;4999652;28;20234;-72
2023/06/23 10:56:53;;;;;;;19.65;17.60;;;22.30;99.90;;;;;;4997184;28;20222;-73
2023/06/23 10:59:43;;;;;;;19.58;17.42;;;22.30;99.90;;;;;;5001157;28;20222;-72
2023/06/23 11:02:51;;;;;;;19.27;17.25;;;22.50;99.90;;;;;;5003087;28;20234;-73
2023/06/23 11:05:43;;;;;;;19.73;17.73;;;22.50;99.90;;;;;;4999500;28;20237;-72
2023/06/23 11:08:35;;;;;;;18.92;16.90;;;22.70;99.90;;;;;;5004262;28;20307;-73
2023/06/23 11:11:32;;;;;;;19.10;17.05;;;22.70;99.90;;;;;;4993800;28;20226;-72
2023/06/23 11:14:24;;;;;;;19.33;17.33;;;22.70;99.90;;;;;;5007798;28;20295;-73
2023/06/23 11:17:15;;;;;;;20.58;16.42;;;22.60;99.90;;;;;;5005380;28;20229;-72
2023/06/23 11:20:04;;;;;;;19.08;16.70;;;22.60;99.90;;;;;;5004797;28;20901;-74
2023/06/23 11:22:55;;;;;;;18.95;16.95;;;22.70;99.90;;;;;;5003315;28;20226;-73
2023/06/23 11:25:47;;;;;;;20.70;16.20;;;22.80;99.90;;;;;;5010213;28;20230;-73
2023/06/23 11:28:40;;;;;;;19.27;15.88;;;22.80;99.90;;;;;;4991276;28;20226;-73
2023/06/23 11:31:31;;;;;;;16.70;14.95;;;23.20;99.90;;;;;;4995749;28;20262;-73
2023/06/23 11:34:20;;;;;;;18.67;15.85;;;23.40;99.90;;;;;;5015504;28;20345;-72
2023/06/23 11:37:09;;;;;;;21.50;14.82;;;23.90;99.90;;;;;;5017573;28;20229;-70
2023/06/23 11:39:59;;;;;;;15.43;13.32;;;24.70;99.90;;;;;;5006664;28;20333;-74
2023/06/23 11:42:48;;;;;;;15.38;13.68;;;26.10;99.90;;;;;;5006240;28;20231;-72
2023/06/23 11:45:37;;;;;;;15.40;13.25;;;27.40;99.90;;;;;;5014543;28;20252;-74
2023/06/23 11:48:29;;;;;;;13.82;12.43;;;30.10;99.90;;;;;;5014729;28;20222;-72
2023/06/23 11:51:21;;;;;;;14.45;12.25;;;31.70;99.90;;;;;;5002204;28;20221;-73
2023/06/23 11:54:10;;;;;;;14.25;12.75;;;33.80;99.90;;;;;;4997517;28;20621;-74
2023/06/23 11:57:01;;;;;;;12.95;11.55;;;35.00;99.90;;;;;;5006098;28;20937;-73
2023/06/23 11:59:53;;;;;;;13.45;12.05;;;35.30;99.90;;;;;;5006331;28;20225;-73
2023/06/23 12:02:45;;;;;;;12.88;11.00;;;35.00;99.90;;;;;;5001578;28;20229;-73
2023/06/23 12:05:41;;;;;;;13.98;11.68;;;33.90;99.90;;;;;;4986459;28;20253;-73
2023/06/23 12:08:29;;;;;;;13.85;11.10;;;32.30;99.90;;;;;;4992374;28;20219;-73
2023/06/23 12:11:18;;;;;;;14.77;11.73;;;30.70;99.90;;;;;;5012769;28;20232;-73
2023/06/23 12:14:09;;;;;;;13.00;11.73;;;30.70;99.90;;;;;;4999733;28;20234;-73
2023/06/23 12:17:08;;;;;;;12.75;11.45;;;31.50;99.90;;;;;;5001461;28;20249;-74
2023/06/23 12:19:59;;;;;;;14.57;12.20;;;31.00;99.90;;;;;;4987785;28;20241;-74
2023/06/23 12:22:50;;;;;;;12.52;11.35;;;30.00;99.90;;;;;;5001397;28;20270;-74
2023/06/23 12:25:40;;;;;;;13.10;11.80;;;31.70;99.90;;;;;;5008466;28;20586;-74
2023/06/23 12:28:31;;;;;;;13.57;11.43;;;34.60;99.90;;;;;;5009774;28;20256;-72
2023/06/23 12:31:26;;;;;;;12.43;11.13;;;36.70;99.30;;;;;;5001640;28;20242;-74
2023/06/23 12:34:19;;;;;;;11.80;10.70;;;36.70;98.50;;;;;;5011391;28;20222;-73
2023/06/23 12:37:12;;;;;;;10.60;9.50;;;35.70;95.70;;;;;;5001755;28;20236;-74
2023/06/23 12:40:10;;;;;;;11.20;10.10;;;35.90;92.90;;;;;;5003429;28;20302;-75
2023/06/23 12:42:59;;;;;;;12.07;10.73;;;36.10;91.10;;;;;;4998067;28;20632;-73
2023/06/23 12:45:49;;;;;;;12.10;10.23;;;35.50;91.80;;;;;;5001554;28;20574;-74
2023/06/23 12:48:39;;;;;;;11.30;9.90;;;32.80;93.70;;;;;;4995980;28;20233;-73
2023/06/23 12:51:36;;;;;;;12.45;11.15;;;31.00;97.50;;;;;;5006163;28;20221;-72
2023/06/23 12:54:27;;;;;;;15.18;12.35;;;29.90;99.70;;;;;;4990057;28;20226;-73
2023/06/23 12:57:20;;;;;;;11.85;10.70;;;30.60;99.90;;;;;;4994282;28;20759;-72
2023/06/23 13:00:11;;;;;;;12.68;11.35;;;30.70;99.90;;;;;;4996487;28;20226;-73
2023/06/23 13:03:02;;;;;;;14.18;12.35;;;29.70;99.90;;;;;;5006865;28;20221;-73
2023/06/23 13:06:00;;;;;;;13.75;12.45;;;29.10;99.90;;;;;;5015981;28;20325;-72
2023/06/23 13:08:54;;;;;;;14.55;13.13;;;28.20;99.90;;;;;;5001311;28;20233;-73
2023/06/23 13:11:43;;;;;;;16.23;13.93;;;27.30;99.90;;;;;;4997268;28;20229;-76
2023/06/23 13:14:33;;;;;;;15.50;12.32;;;26.80;99.90;;;;;;5009242;28;20229;-76
2023/06/23 13:17:26;;;;;;;14.20;12.70;;;26.70;99.90;;;;;;5008144;28;20597;-75
2023/06/23 13:20:15;;;;;;;14.57;12.95;;;26.60;99.90;;;;;;5011488;28;20229;-77
2023/06/23 13:23:04;;;;;;;14.70;12.98;;;26.40;99.90;;;;;;5009362;28;20222;-76
2023/06/23 13:25:54;;;;;;;16.77;12.70;;;26.40;99.90;;;;;;4992315;28;20690;-76
2023/06/23 13:28:43;;;;;;;15.93;13.00;;;26.50;99.90;;;;;;4998133;28;20380;-76
2023/06/23 13:31:33;;;;;;;15.00;13.48;;;26.50;99.90;;;;;;4993650;28;20222;-76
2023/06/23 13:34:22;;;;;;;14.55;12.77;;;26.20;99.90;;;;;;4996400;28;20237;-76
2023/06/23 13:37:15;;;;;;;14.55;13.05;;;26.20;99.90;;;;;;5000107;28;22210;-75
2023/06/23 13:40:05;;;;;;;13.90;12.43;;;26.30;99.90;;;;;;5002581;28;20221;-76
2023/06/23 13:42:54;;;;;;;13.30;11.63;;;26.50;99.90;;;;;;5007005;28;20452;-75
2023/06/23 13:45:42;;;;;;;13.02;11.60;;;26.60;99.90;;;;;;4986816;28;20732;-76
2023/06/23 13:48:33;;;;;;;14.50;11.40;;;26.70;99.90;;;;;;4994524;28;21010;-76
2023/06/23 13:51:22;;;;;;;14.85;12.70;;;26.80;99.90;;;;;;4982530;28;20225;-75
2023/06/23 13:54:11;;;;;;;14.68;12.43;;;26.60;99.90;;;;;;5002959;28;20237;-75
2023/06/23 13:57:00;;;;;;;14.00;12.45;;;26.70;99.90;;;;;;5010797;28;20230;-76
2023/06/23 13:59:49;;;;;;;13.95;12.52;;;26.60;99.90;;;;;;4997282;28;20921;-76
2023/06/23 14:02:38;;;;;;;13.63;12.23;;;26.50;99.90;;;;;;4995218;28;20767;-76
2023/06/23 14:05:29;;;;;;;14.23;12.75;;;26.60;99.90;;;;;;4990876;28;20276;-76
2023/06/23 14:08:40;;;;;;;15.80;11.82;;;26.40;99.90;;;;;;5005592;28;20233;-76
2023/06/23 14:11:29;;;;;;;13.63;12.23;;;26.50;99.90;;;;;;4985301;28;20234;-75
2023/06/23 14:14:18;;;;;;;14.52;11.82;;;26.50;99.90;;;;;;5009778;28;20315;-74
2023/06/23 14:17:08;;;;;;;12.13;10.82;;;26.50;99.90;;;;;;5006337;28;20230;-76
2023/06/23 14:19:57;;;;;;;14.95;11.18;;;26.40;99.90;;;;;;5012863;28;20998;-74
2023/06/23 14:22:47;;;;;;;12.38;11.15;;;26.30;99.90;;;;;;5017964;28;20228;-75
2023/06/23 14:25:36;;;;;;;14.75;11.30;;;26.10;99.90;;;;;;5012828;28;20252;-75
2023/06/23 14:28:29;;;;;;;14.00;10.52;;;26.00;99.90;;;;;;5004531;28;20215;-75
2023/06/23 14:31:18;;;;;;;16.65;13.32;;;26.00;99.90;;;;;;4995023;28;20313;-73
2023/06/23 14:34:07;;;;;;;18.00;15.55;;;26.00;99.90;;;;;;5001439;28;20229;-74
2023/06/23 14:36:57;;;;;;;18.35;14.23;;;26.00;99.90;;;;;;4993733;28;20243;-75
2023/06/23 14:39:47;;;;;;;20.42;15.88;;;25.90;99.90;;;;;;4998310;28;20223;-74
2023/06/23 14:42:36;;;;;;;16.05;13.30;;;25.80;99.90;;;;;;4992141;28;20230;-73
2023/06/23 14:45:25;;;;;;;15.02;11.88;;;25.80;99.90;;;;;;4998466;28;20307;-74
2023/06/23 14:48:15;;;;;;;15.43;12.55;;;25.70;99.90;;;;;;5009608;28;20257;-74